Time;durP1;ratioP1;P1;durP2;ratioP2;P2;SDS_P1;SDS_P2;PMS_P1;PMS_P2;Temp;Humidity;BMP_temperature;BMP_pressure;BME280_temperature;BME280_humidity;BME280_pressure;Samples;Min_cycle;Max_cycle;Signal;HPM_P1;HPM_P2
2022/05/09 00:02:06;;;;;;;3.00;1.40;;;9.50;99.90;;;;;;5053157;28;20199;-66
2022/05/09 00:04:32;;;;;;;1.30;1.20;;;9.50;99.90;;;;;;5053367;28;20167;-66
2022/05/09 00:06:57;;;;;;;3.13;1.47;;;9.40;99.90;;;;;;5053314;28;20593;-66
2022/05/09 00:09:24;;;;;;;4.43;1.70;;;9.40;99.90;;;;;;5053326;28;20182;-66
2022/05/09 00:11:50;;;;;;;2.57;1.60;;;9.40;99.90;;;;;;5052974;28;20168;-67
2022/05/09 00:14:15;;;;;;;2.57;2.00;;;9.30;99.90;;;;;;5052975;28;20485;-66
2022/05/09 00:16:41;;;;;;;1.87;1.67;;;9.30;99.90;;;;;;5052777;28;20438;-67
2022/05/09 00:19:08;;;;;;;2.30;1.77;;;9.30;99.90;;;;;;5052821;28;20275;-66
2022/05/09 00:21:36;;;;;;;5.20;1.93;;;9.20;99.90;;;;;;5052678;28;20625;-66
2022/05/09 00:24:03;;;;;;;2.10;1.83;;;9.20;99.90;;;;;;5052810;28;20406;-66
2022/05/09 00:26:31;;;;;;;1.77;1.40;;;9.20;99.90;;;;;;5052867;28;20475;-66
2022/05/09 00:28:58;;;;;;;1.83;1.57;;;9.10;99.90;;;;;;5052813;28;20435;-66
2022/05/09 00:31:23;;;;;;;3.37;1.80;;;9.10;99.90;;;;;;5052606;28;20453;-66
2022/05/09 00:33:49;;;;;;;4.70;1.70;;;9.00;99.90;;;;;;5053714;28;20467;-66
2022/05/09 00:36:16;;;;;;;1.67;1.57;;;9.00;99.90;;;;;;5052578;28;20191;-66
2022/05/09 00:38:42;;;;;;;1.67;1.57;;;9.00;99.90;;;;;;5052985;28;20207;-66
2022/05/09 00:43:53;;;;;;;3.20;1.40;;;8.90;99.90;;;;;;5052567;28;20399;-66
2022/05/09 00:46:18;;;;;;;5.50;1.73;;;8.90;99.90;;;;;;5052563;28;20401;-66
2022/05/09 00:48:44;;;;;;;3.60;2.17;;;8.90;99.90;;;;;;5052504;28;20433;-67
2022/05/09 00:51:12;;;;;;;1.70;1.53;;;8.90;99.90;;;;;;5052626;28;20171;-66
2022/05/09 00:53:38;;;;;;;2.80;1.47;;;8.80;99.90;;;;;;5052387;28;20175;-66
2022/05/09 00:56:10;;;;;;;5.07;2.10;;;8.80;99.90;;;;;;5052308;28;20410;-66
2022/05/09 00:58:42;;;;;;;1.70;1.60;;;8.70;99.90;;;;;;5051856;28;20473;-66
2022/05/09 01:01:10;;;;;;;8.17;1.60;;;8.70;99.90;;;;;;5052146;28;20488;-66
2022/05/09 01:03:43;;;;;;;4.67;1.80;;;8.70;99.90;;;;;;5052127;28;20824;-66
2022/05/09 01:06:10;;;;;;;1.87;1.77;;;8.60;99.90;;;;;;5052076;28;20402;-66
2022/05/09 01:08:36;;;;;;;2.17;1.97;;;8.60;99.90;;;;;;5052159;28;20466;-66
2022/05/09 01:11:09;;;;;;;2.33;2.13;;;8.60;99.90;;;;;;5051998;28;20412;-66
2022/05/09 01:13:40;;;;;;;3.20;1.80;;;8.50;99.90;;;;;;5052311;28;20409;-66
2022/05/09 01:16:08;;;;;;;5.70;2.60;;;8.50;99.90;;;;;;5051817;28;20417;-66
2022/05/09 01:18:34;;;;;;;3.07;1.67;;;8.50;99.90;;;;;;5051894;28;20461;-66
2022/05/09 01:21:00;;;;;;;1.40;1.30;;;8.40;99.90;;;;;;5052012;28;20416;-66
2022/05/09 01:23:25;;;;;;;3.13;2.00;;;8.40;99.90;;;;;;5052056;28;20767;-66
2022/05/09 01:25:52;;;;;;;4.33;1.90;;;8.40;99.90;;;;;;5051795;28;20174;-66
2022/05/09 01:28:18;;;;;;;9.03;2.20;;;8.40;99.90;;;;;;5052193;28;20222;-66
2022/05/09 01:30:51;;;;;;;2.30;1.20;;;8.30;99.90;;;;;;5051609;28;20402;-66
2022/05/09 01:33:37;;;;;;;2.30;1.47;;;8.30;99.90;;;;;;5051654;28;20174;-66
2022/05/09 01:36:19;;;;;;;4.67;2.13;;;8.30;99.90;;;;;;5051375;28;20405;-66
2022/05/09 01:38:56;;;;;;;5.63;2.30;;;8.30;99.90;;;;;;5050468;28;20930;-66
2022/05/09 01:41:23;;;;;;;2.90;2.10;;;8.20;99.90;;;;;;5051976;28;20504;-66
2022/05/09 01:43:52;;;;;;;1.70;1.60;;;8.20;99.90;;;;;;5051675;28;20460;-66
2022/05/09 01:49:29;;;;;;;2.93;2.73;;;8.20;99.90;;;;;;5051521;28;20479;-66
2022/05/09 01:49:29;;;;;;;2.20;1.60;;;8.20;99.90;;;;;;5051387;28;20421;-66
2022/05/09 01:51:56;;;;;;;6.80;2.30;;;8.20;99.90;;;;;;5051298;28;20914;-66
2022/05/09 01:54:21;;;;;;;2.60;1.43;;;8.20;99.90;;;;;;5051309;28;20847;-66
2022/05/09 01:56:47;;;;;;;5.23;2.27;;;8.10;99.90;;;;;;5051534;28;20441;-66
2022/05/09 01:59:13;;;;;;;2.13;1.93;;;8.10;99.90;;;;;;5051254;28;20260;-66
2022/05/09 02:01:49;;;;;;;3.27;2.43;;;8.10;99.90;;;;;;5051179;28;20214;-66
2022/05/09 02:04:15;;;;;;;4.03;3.63;;;8.10;99.90;;;;;;5051159;28;20411;-66
2022/05/09 02:06:41;;;;;;;2.97;2.10;;;8.10;99.90;;;;;;5051122;28;20897;-67
2022/05/09 02:09:08;;;;;;;4.70;1.90;;;8.00;99.90;;;;;;5050857;28;20674;-66
2022/05/09 02:11:34;;;;;;;2.73;2.53;;;8.00;99.90;;;;;;5051022;28;20433;-66
2022/05/09 02:14:00;;;;;;;2.37;2.00;;;8.00;99.90;;;;;;5051061;28;20414;-66
2022/05/09 02:16:25;;;;;;;2.10;1.90;;;8.00;99.90;;;;;;5051047;28;20409;-66
2022/05/09 02:18:51;;;;;;;4.60;2.50;;;8.00;99.90;;;;;;5051242;28;20554;-66
2022/05/09 02:21:16;;;;;;;3.83;2.70;;;8.00;99.90;;;;;;5050829;28;20189;-66
2022/05/09 02:30:45;;;;;;;2.30;2.10;;;7.90;99.90;;;;;;5051346;28;20388;-66
2022/05/09 02:33:11;;;;;;;3.23;2.00;;;7.90;99.90;;;;;;5049576;28;20440;-66
2022/05/09 02:35:38;;;;;;;6.20;2.13;;;7.80;99.90;;;;;;5051208;28;20493;-65
2022/05/09 02:38:04;;;;;;;2.20;1.67;;;7.80;99.90;;;;;;5051100;28;20646;-66
2022/05/09 02:40:29;;;;;;;2.70;2.43;;;7.70;99.90;;;;;;5051437;28;20959;-65
2022/05/09 02:42:57;;;;;;;5.57;2.33;;;7.70;99.90;;;;;;5051443;28;20452;-65
2022/05/09 02:45:24;;;;;;;2.43;2.27;;;7.70;99.90;;;;;;5051621;28;20245;-66
2022/05/09 02:47:50;;;;;;;5.77;2.80;;;7.70;99.90;;;;;;5051586;28;20460;-66
2022/05/09 02:50:16;;;;;;;2.77;2.20;;;7.70;99.90;;;;;;5050890;28;20931;-67
2022/05/09 02:52:42;;;;;;;7.10;2.70;;;7.60;99.90;;;;;;5050913;28;20406;-65
2022/05/09 02:55:10;;;;;;;5.03;2.83;;;7.60;99.90;;;;;;5050601;28;20435;-65
2022/05/09 02:57:36;;;;;;;9.50;2.50;;;7.60;99.90;;;;;;5050483;28;20285;-65
2022/05/09 03:00:04;;;;;;;8.20;2.27;;;7.60;99.90;;;;;;5050363;28;20821;-66
2022/05/09 03:02:29;;;;;;;6.47;1.93;;;7.50;99.90;;;;;;5050366;28;20401;-65
2022/05/09 03:04:55;;;;;;;2.97;2.00;;;7.50;99.90;;;;;;5050438;28;20752;-65
2022/05/09 03:07:20;;;;;;;5.10;2.27;;;7.50;99.90;;;;;;5050372;28;20244;-65
2022/05/09 03:09:47;;;;;;;2.03;1.83;;;7.50;99.90;;;;;;5050400;28;20179;-65
2022/05/09 03:12:14;;;;;;;4.50;2.53;;;7.50;99.90;;;;;;5050562;28;20198;-66
2022/05/09 03:14:40;;;;;;;4.63;2.47;;;7.50;99.90;;;;;;5050056;28;20500;-66
2022/05/09 03:17:08;;;;;;;4.97;3.13;;;7.40;99.90;;;;;;5050246;28;20415;-67
2022/05/09 03:19:34;;;;;;;3.97;3.63;;;7.40;99.90;;;;;;5050401;28;20504;-66
2022/05/09 03:22:00;;;;;;;2.80;2.27;;;7.40;99.90;;;;;;5053861;28;20505;-66
2022/05/09 03:24:25;;;;;;;3.77;3.00;;;7.40;99.90;;;;;;5054329;28;20807;-66
2022/05/09 03:26:51;;;;;;;3.33;2.53;;;7.40;99.90;;;;;;5054210;28;20167;-66
2022/05/09 03:29:18;;;;;;;7.03;2.70;;;7.40;99.90;;;;;;5053979;28;20537;-66
2022/05/09 03:31:46;;;;;;;10.03;2.73;;;7.30;99.90;;;;;;5054190;28;20182;-66
2022/05/09 03:34:12;;;;;;;5.77;3.47;;;7.30;99.90;;;;;;5053899;28;20468;-66
2022/05/09 03:36:38;;;;;;;7.80;2.20;;;7.30;99.90;;;;;;5053999;28;20488;-66
2022/05/09 03:39:04;;;;;;;6.00;2.70;;;7.30;99.90;;;;;;5053995;28;20970;-66
2022/05/09 03:41:30;;;;;;;6.57;3.50;;;7.30;99.90;;;;;;5055268;28;20386;-66
2022/05/09 03:43:55;;;;;;;3.83;2.60;;;7.30;99.90;;;;;;5055438;28;20401;-68
2022/05/09 03:46:21;;;;;;;3.43;2.20;;;7.30;99.90;;;;;;5054963;28;20247;-66
2022/05/09 03:48:46;;;;;;;5.10;2.50;;;7.30;99.90;;;;;;5053661;28;20187;-66
2022/05/09 03:51:12;;;;;;;4.20;3.80;;;7.30;99.90;;;;;;5053608;28;20194;-66
2022/05/09 03:53:37;;;;;;;2.60;1.80;;;7.20;99.90;;;;;;5053484;28;20167;-66
2022/05/09 03:56:03;;;;;;;3.33;3.00;;;7.20;99.90;;;;;;5053461;28;20641;-66
2022/05/09 03:58:30;;;;;;;2.90;2.50;;;7.30;99.90;;;;;;5053078;28;20240;-66
2022/05/09 04:00:55;;;;;;;6.10;2.37;;;7.20;99.90;;;;;;5053532;28;20409;-66
2022/05/09 04:03:21;;;;;;;2.90;2.47;;;7.20;99.90;;;;;;5053509;28;20410;-66
2022/05/09 04:05:46;;;;;;;3.33;2.30;;;7.30;99.90;;;;;;5053284;28;20171;-66
2022/05/09 04:08:16;;;;;;;3.17;2.33;;;7.30;99.90;;;;;;5053146;28;20712;-66
2022/05/09 04:10:44;;;;;;;4.07;3.03;;;7.30;99.90;;;;;;5053142;28;20171;-65
2022/05/09 04:13:10;;;;;;;4.20;2.77;;;7.30;99.90;;;;;;5053168;28;20448;-66
2022/05/09 04:18:22;;;;;;;5.87;3.30;;;7.40;99.90;;;;;;5053199;28;20584;-66
2022/05/09 04:20:50;;;;;;;3.63;2.27;;;7.50;99.90;;;;;;5053285;28;20492;-67
2022/05/09 04:23:16;;;;;;;4.97;2.30;;;7.50;99.90;;;;;;5053210;28;20250;-66
2022/05/09 04:25:42;;;;;;;3.47;2.90;;;7.50;99.90;;;;;;5053014;28;20497;-66
2022/05/09 04:28:08;;;;;;;3.83;3.40;;;7.60;99.90;;;;;;5053167;28;20537;-66
2022/05/09 04:30:35;;;;;;;4.00;2.67;;;7.60;99.90;;;;;;5053055;28;20175;-66
2022/05/09 04:33:04;;;;;;;2.90;2.30;;;7.70;99.90;;;;;;5052823;28;20417;-66
2022/05/09 04:35:30;;;;;;;4.93;2.90;;;7.70;99.90;;;;;;5052860;28;20428;-65
2022/05/09 04:37:56;;;;;;;2.87;2.57;;;7.80;99.90;;;;;;5053082;28;20518;-65
2022/05/09 04:40:26;;;;;;;9.33;3.10;;;7.80;99.90;;;;;;5034844;28;20492;-66
2022/05/09 04:42:52;;;;;;;3.57;2.93;;;7.90;99.90;;;;;;5053056;28;20167;-66
2022/05/09 04:45:18;;;;;;;4.47;3.00;;;7.90;99.90;;;;;;5052747;28;20414;-66
2022/05/09 04:47:45;;;;;;;4.10;2.17;;;8.00;99.90;;;;;;5053076;28;20417;-66
2022/05/09 04:50:13;;;;;;;4.10;2.60;;;8.10;99.90;;;;;;5052865;28;20409;-66
2022/05/09 04:52:38;;;;;;;7.27;3.50;;;8.20;99.90;;;;;;5052363;28;20422;-66
2022/05/09 04:55:05;;;;;;;7.30;3.90;;;8.30;99.90;;;;;;5052564;28;20500;-66
2022/05/09 04:57:30;;;;;;;3.87;2.50;;;8.40;99.90;;;;;;5052187;28;20608;-66
2022/05/09 04:59:57;;;;;;;2.83;2.43;;;8.50;99.90;;;;;;5052373;28;20456;-66
2022/05/09 05:02:23;;;;;;;3.40;3.10;;;8.50;99.90;;;;;;5052395;28;20167;-66
2022/05/09 05:04:48;;;;;;;3.00;2.70;;;8.60;99.90;;;;;;5052082;28;20750;-66
2022/05/09 05:07:14;;;;;;;5.30;2.70;;;8.70;99.90;;;;;;5052029;28;20595;-66
2022/05/09 05:09:39;;;;;;;6.20;3.20;;;8.90;99.90;;;;;;5052491;28;20159;-66
2022/05/09 05:12:05;;;;;;;7.00;3.00;;;9.60;99.90;;;;;;5052040;28;20249;-66
2022/05/09 05:14:31;;;;;;;3.93;2.27;;;10.20;99.90;;;;;;5052044;28;20175;-67
2022/05/09 05:16:59;;;;;;;8.20;2.70;;;10.70;99.90;;;;;;5034230;28;20755;-67
2022/05/09 05:19:31;;;;;;;4.50;2.97;;;11.60;99.90;;;;;;5052359;28;20191;-67
2022/05/09 05:21:57;;;;;;;3.00;2.30;;;11.90;99.90;;;;;;5052114;28;20935;-67
2022/05/09 05:24:23;;;;;;;4.80;2.67;;;12.00;99.90;;;;;;5051978;28;20417;-67
2022/05/09 05:26:48;;;;;;;3.83;2.80;;;12.20;99.90;;;;;;5052451;28;20405;-67
2022/05/09 05:29:15;;;;;;;3.47;2.27;;;12.40;99.90;;;;;;5052691;28;20191;-66
2022/05/09 05:31:40;;;;;;;3.50;2.50;;;12.60;99.90;;;;;;5051885;28;20559;-66
2022/05/09 05:34:06;;;;;;;2.90;2.40;;;12.90;99.90;;;;;;5051900;28;20481;-66
2022/05/09 05:36:31;;;;;;;6.67;3.20;;;13.20;99.90;;;;;;5051843;28;20209;-67
2022/05/09 05:38:57;;;;;;;2.80;2.17;;;13.20;99.90;;;;;;5051597;28;20210;-67
2022/05/09 05:41:25;;;;;;;4.97;3.70;;;13.50;99.90;;;;;;5051823;28;20183;-66
2022/05/09 05:43:51;;;;;;;4.63;3.10;;;13.40;99.90;;;;;;5051258;28;20191;-66
2022/05/09 05:46:17;;;;;;;4.30;2.40;;;13.40;99.90;;;;;;5051659;28;20417;-66
2022/05/09 05:48:42;;;;;;;11.80;3.00;;;13.80;99.90;;;;;;5051827;28;20454;-67
2022/05/09 05:51:08;;;;;;;4.77;3.33;;;13.50;99.90;;;;;;5051726;28;20190;-66
2022/05/09 05:53:37;;;;;;;3.00;2.80;;;13.90;99.90;;;;;;5051533;28;20254;-65
2022/05/09 05:56:02;;;;;;;10.63;3.10;;;14.20;99.90;;;;;;5051406;28;20423;-66
2022/05/09 05:58:28;;;;;;;8.23;3.30;;;14.30;99.90;;;;;;5072272;23;20554;-72
2022/05/09 06:00:55;;;;;;;3.03;2.73;;;14.50;99.90;;;;;;5052049;28;20411;-72
2022/05/09 06:03:20;;;;;;;4.70;3.30;;;14.50;99.90;;;;;;5052026;28;20172;-72
2022/05/09 06:05:46;;;;;;;4.47;3.23;;;14.80;99.90;;;;;;5051960;28;20399;-74
2022/05/09 06:08:12;;;;;;;5.23;3.23;;;14.40;99.90;;;;;;5052046;28;20196;-72
2022/05/09 06:10:38;;;;;;;4.90;3.03;;;14.40;99.90;;;;;;5052072;28;20407;-72
2022/05/09 06:13:05;;;;;;;3.20;2.90;;;15.40;99.90;;;;;;5051905;28;20167;-74
2022/05/09 06:15:34;;;;;;;2.70;2.43;;;15.80;99.90;;;;;;5051829;28;20266;-71
2022/05/09 06:18:03;;;;;;;3.43;2.63;;;15.80;99.90;;;;;;5051727;28;20423;-72
2022/05/09 06:20:31;;;;;;;3.33;2.77;;;16.20;99.90;;;;;;5051825;28;20450;-71
2022/05/09 06:22:59;;;;;;;4.10;2.57;;;16.80;99.90;;;;;;5051673;28;20422;-72
2022/05/09 06:25:26;;;;;;;3.97;3.10;;;16.70;99.90;;;;;;5051731;28;20402;-71
2022/05/09 06:27:52;;;;;;;4.20;3.13;;;16.50;99.90;;;;;;5051651;28;20928;-71
2022/05/09 06:30:20;;;;;;;3.90;3.20;;;16.80;99.90;;;;;;5051851;28;20777;-71
2022/05/09 06:32:46;;;;;;;3.80;3.17;;;17.30;99.90;;;;;;5033529;28;20422;-71
2022/05/09 06:35:23;;;;;;;3.73;2.80;;;17.40;99.90;;;;;;5051601;28;20408;-71
2022/05/09 06:37:50;;;;;;;3.90;3.07;;;17.40;99.90;;;;;;5051800;28;20179;-74
2022/05/09 06:40:16;;;;;;;3.40;3.10;;;17.40;99.90;;;;;;5052273;28;20449;-73
2022/05/09 06:42:42;;;;;;;3.30;2.47;;;17.90;99.90;;;;;;5051713;28;20662;-72
2022/05/09 06:45:08;;;;;;;4.93;3.50;;;18.10;99.90;;;;;;5051774;28;20487;-73
2022/05/09 06:47:34;;;;;;;2.90;2.50;;;17.90;99.90;;;;;;5052404;28;20599;-72
2022/05/09 06:50:01;;;;;;;3.70;2.77;;;17.40;99.90;;;;;;5051966;28;20440;-73
2022/05/09 06:52:26;;;;;;;3.90;2.97;;;18.80;99.90;;;;;;5051854;28;21101;-71
2022/05/09 06:54:52;;;;;;;4.57;2.83;;;18.90;99.90;;;;;;5053246;28;20410;-71
2022/05/09 06:57:17;;;;;;;6.13;3.10;;;19.20;99.90;;;;;;5037648;28;20172;-71
2022/05/09 06:59:42;;;;;;;7.67;3.33;;;19.70;99.40;;;;;;5055114;28;20239;-72
2022/05/09 07:02:13;;;;;;;3.60;2.93;;;19.80;98.30;;;;;;5055853;28;20182;-72
2022/05/09 07:04:39;;;;;;;7.97;2.73;;;18.90;99.40;;;;;;5055637;28;20164;-74
2022/05/09 07:07:04;;;;;;;4.87;3.50;;;19.50;98.40;;;;;;5055454;28;20419;-73
2022/05/09 07:09:30;;;;;;;3.30;3.00;;;18.80;99.90;;;;;;5055269;28;20518;-73
2022/05/09 07:11:55;;;;;;;4.87;3.30;;;19.10;99.00;;;;;;5047861;28;20187;-74
2022/05/09 07:14:21;;;;;;;3.40;2.87;;;19.10;99.20;;;;;;5046895;28;20173;-72
2022/05/09 07:16:46;;;;;;;3.10;2.90;;;20.00;97.30;;;;;;5038216;28;20192;-72
2022/05/09 07:19:13;;;;;;;3.80;3.20;;;20.30;97.50;;;;;;5040215;28;20210;-73
2022/05/09 07:21:39;;;;;;;4.73;3.50;;;20.60;96.10;;;;;;5055128;28;20627;-72
2022/05/09 07:24:06;;;;;;;3.43;3.13;;;20.10;96.20;;;;;;5054799;28;20502;-72
2022/05/09 07:26:32;;;;;;;4.70;4.30;;;20.90;94.50;;;;;;5054992;28;20262;-72
2022/05/09 07:28:58;;;;;;;2.57;2.37;;;20.00;96.90;;;;;;5053583;28;20452;-72
2022/05/09 07:31:23;;;;;;;4.10;3.20;;;19.80;96.20;;;;;;5054961;28;20408;-72
2022/05/09 07:33:49;;;;;;;4.20;2.87;;;19.20;96.30;;;;;;5055040;28;20181;-73
2022/05/09 07:36:14;;;;;;;4.23;2.63;;;19.50;96.70;;;;;;5054965;28;20327;-72
2022/05/09 07:38:40;;;;;;;6.37;3.33;;;19.50;97.00;;;;;;5054785;28;20189;-73
2022/05/09 07:41:06;;;;;;;3.80;3.37;;;19.50;95.70;;;;;;5054948;28;20174;-73
2022/05/09 07:43:31;;;;;;;2.97;2.67;;;19.60;97.10;;;;;;5054753;28;20170;-71
2022/05/09 07:45:57;;;;;;;3.83;2.80;;;20.60;94.90;;;;;;5053458;28;20170;-73
2022/05/09 07:48:27;;;;;;;3.07;2.60;;;20.60;94.30;;;;;;5054815;28;20189;-72
2022/05/09 07:50:55;;;;;;;4.43;3.10;;;20.90;94.90;;;;;;5054807;28;20440;-72
2022/05/09 07:53:26;;;;;;;4.70;3.33;;;20.70;94.30;;;;;;5054433;28;20829;-72
2022/05/09 07:55:51;;;;;;;4.37;2.73;;;20.80;94.50;;;;;;5054415;28;20405;-73
2022/05/09 07:58:17;;;;;;;3.13;2.67;;;20.60;93.60;;;;;;5054416;28;20472;-73
2022/05/09 08:00:45;;;;;;;4.37;3.27;;;21.10;93.50;;;;;;5054350;28;20209;-73
2022/05/09 08:03:22;;;;;;;3.27;2.97;;;21.20;92.60;;;;;;5054410;28;20401;-73
2022/05/09 08:05:49;;;;;;;4.03;2.93;;;21.40;92.40;;;;;;5053537;28;20887;-73
2022/05/09 08:08:15;;;;;;;5.00;2.63;;;22.20;90.30;;;;;;5054301;28;20428;-73
2022/05/09 08:10:42;;;;;;;3.07;2.57;;;21.00;92.40;;;;;;5054224;28;20397;-73
2022/05/09 08:13:08;;;;;;;2.90;2.70;;;20.40;93.00;;;;;;5054245;28;20443;-73
2022/05/09 08:15:35;;;;;;;3.13;2.83;;;21.10;92.70;;;;;;5054447;28;20836;-72
2022/05/09 08:18:02;;;;;;;3.50;2.83;;;21.90;91.60;;;;;;5054226;28;20421;-72
2022/05/09 08:20:33;;;;;;;3.80;3.50;;;22.30;90.00;;;;;;5053790;28;20452;-74
2022/05/09 08:23:06;;;;;;;5.57;3.03;;;21.70;90.80;;;;;;5053240;28;20412;-73
2022/05/09 08:25:34;;;;;;;4.90;3.80;;;20.80;91.20;;;;;;5053972;28;20402;-73
2022/05/09 08:28:01;;;;;;;3.57;3.27;;;21.10;92.30;;;;;;5053847;28;20414;-71
2022/05/09 08:30:32;;;;;;;5.97;3.60;;;21.40;90.20;;;;;;5053923;28;20405;-73
2022/05/09 08:32:58;;;;;;;3.10;2.60;;;21.80;89.80;;;;;;5053846;28;20814;-73
2022/05/09 08:35:23;;;;;;;3.13;2.73;;;21.70;88.80;;;;;;5054278;28;20397;-74
2022/05/09 08:37:49;;;;;;;3.03;2.53;;;20.90;90.50;;;;;;5053519;28;20633;-73
2022/05/09 08:40:15;;;;;;;3.60;2.83;;;21.70;88.30;;;;;;5053649;28;20198;-71
2022/05/09 08:42:48;;;;;;;4.07;2.50;;;22.30;85.30;;;;;;5053747;28;20580;-72
2022/05/09 08:45:22;;;;;;;4.03;3.33;;;22.20;85.00;;;;;;5053443;28;20420;-73
2022/05/09 08:48:24;;;;;;;3.60;2.30;;;22.00;85.70;;;;;;5053533;28;20397;-72
2022/05/09 08:51:31;;;;;;;3.80;3.30;;;22.90;84.00;;;;;;5053535;28;20396;-71
2022/05/09 08:54:02;;;;;;;3.17;2.53;;;21.80;87.10;;;;;;5052991;28;20415;-72
2022/05/09 08:56:27;;;;;;;6.67;3.37;;;21.90;87.00;;;;;;5032148;28;20488;-73
2022/05/09 08:58:58;;;;;;;2.60;2.40;;;22.00;87.30;;;;;;5052573;28;20456;-72
2022/05/09 09:01:42;;;;;;;2.80;2.20;;;21.90;86.70;;;;;;5052328;28;20229;-73
2022/05/09 09:04:29;;;;;;;5.70;2.40;;;22.10;85.50;;;;;;5052439;28;20409;-73
2022/05/09 09:07:30;;;;;;;2.20;2.00;;;22.40;83.40;;;;;;5053262;28;20405;-74
2022/05/09 09:10:17;;;;;;;2.20;2.00;;;23.10;77.70;;;;;;5053149;28;20504;-74
2022/05/09 09:12:53;;;;;;;3.10;2.40;;;23.30;74.80;;;;;;5052172;28;20409;-72
2022/05/09 09:15:53;;;;;;;3.00;2.17;;;21.50;78.00;;;;;;5053384;28;20393;-73
2022/05/09 09:18:44;;;;;;;3.00;2.27;;;21.60;80.30;;;;;;5052115;28;20421;-72
2022/05/09 09:21:14;;;;;;;2.83;1.73;;;22.60;72.90;;;;;;5053284;28;20416;-73
2022/05/09 09:24:10;;;;;;;3.27;2.13;;;23.00;71.20;;;;;;5053248;28;20770;-73
2022/05/09 09:27:04;;;;;;;2.27;1.53;;;22.30;72.50;;;;;;5053090;28;20419;-73
2022/05/09 09:29:41;;;;;;;3.33;2.40;;;22.30;68.40;;;;;;5025530;28;20431;-73
2022/05/09 09:32:10;;;;;;;3.93;2.60;;;21.50;73.00;;;;;;5052680;28;20411;-73
2022/05/09 09:34:46;;;;;;;3.30;2.23;;;21.80;75.10;;;;;;5052418;28;20411;-72
2022/05/09 09:37:19;;;;;;;2.87;2.10;;;21.70;75.70;;;;;;5052919;28;20413;-73
2022/05/09 09:39:45;;;;;;;2.63;2.33;;;22.20;74.90;;;;;;5052559;28;20951;-72
2022/05/09 09:42:10;;;;;;;2.90;2.23;;;20.80;76.50;;;;;;5052110;28;20420;-73
2022/05/09 09:44:42;;;;;;;2.93;2.63;;;20.90;78.20;;;;;;5052313;28;20183;-72
2022/05/09 09:47:28;;;;;;;3.20;2.07;;;21.10;77.60;;;;;;5048111;28;20190;-72
2022/05/09 09:50:18;;;;;;;2.27;2.07;;;21.70;77.60;;;;;;5032357;28;20472;-73
2022/05/09 09:52:53;;;;;;;2.60;2.00;;;22.20;74.20;;;;;;5031986;28;20421;-73
2022/05/09 09:55:39;;;;;;;3.53;2.17;;;22.60;73.70;;;;;;5035467;28;20416;-73
2022/05/09 09:58:26;;;;;;;2.93;1.80;;;22.10;73.10;;;;;;5051664;28;20982;-73
2022/05/09 10:01:05;;;;;;;4.30;2.50;;;21.90;74.10;;;;;;5051890;28;20493;-72
2022/05/09 10:03:33;;;;;;;3.60;2.37;;;21.90;73.70;;;;;;5051777;28;20480;-73
2022/05/09 10:05:59;;;;;;;3.70;2.30;;;21.90;73.40;;;;;;5051791;28;20821;-74
2022/05/09 10:08:36;;;;;;;3.50;2.10;;;21.20;73.10;;;;;;5052079;28;20509;-73
2022/05/09 10:11:20;;;;;;;3.10;2.00;;;20.60;72.10;;;;;;5052175;28;20193;-73
2022/05/09 10:13:52;;;;;;;2.13;1.93;;;20.30;71.50;;;;;;5052290;28;20431;-73
2022/05/09 10:16:45;;;;;;;2.13;1.70;;;20.10;74.10;;;;;;5051842;28;20499;-73
2022/05/09 10:19:27;;;;;;;3.70;2.30;;;19.60;76.00;;;;;;5051798;28;20462;-73
2022/05/09 10:24:48;;;;;;;4.80;2.77;;;19.90;76.00;;;;;;5052162;28;20463;-73
2022/05/09 10:27:20;;;;;;;2.90;2.27;;;20.00;77.00;;;;;;5051909;28;20860;-72
2022/05/09 10:29:47;;;;;;;3.90;2.10;;;19.80;76.10;;;;;;5051474;28;20434;-73
2022/05/09 10:32:14;;;;;;;2.27;1.73;;;19.70;76.10;;;;;;5051508;28;20413;-73
2022/05/09 10:34:49;;;;;;;2.70;1.90;;;19.60;76.80;;;;;;5051812;28;20432;-73
2022/05/09 10:37:40;;;;;;;2.23;1.77;;;19.70;73.10;;;;;;5033797;28;20417;-74
2022/05/09 10:40:11;;;;;;;2.20;1.50;;;19.50;73.50;;;;;;5051726;28;20459;-73
2022/05/09 10:42:45;;;;;;;2.90;1.77;;;19.80;71.70;;;;;;5051712;28;20420;-72
2022/05/09 10:45:21;;;;;;;2.63;1.90;;;19.70;71.10;;;;;;5051640;28;20439;-72
2022/05/09 10:48:13;;;;;;;2.60;1.93;;;19.40;68.50;;;;;;5051761;28;20403;-73
2022/05/09 10:50:57;;;;;;;3.47;1.90;;;19.40;67.40;;;;;;5051809;28;20504;-73
2022/05/09 10:53:39;;;;;;;3.43;2.07;;;19.70;68.50;;;;;;5051611;28;20408;-73
2022/05/09 10:56:29;;;;;;;2.10;1.80;;;19.50;67.90;;;;;;5051664;28;20814;-73
2022/05/09 10:59:04;;;;;;;4.67;1.70;;;19.40;69.60;;;;;;5050686;28;21090;-73
2022/05/09 11:01:36;;;;;;;1.93;1.73;;;19.50;69.30;;;;;;5051264;28;20484;-73
2022/05/09 11:04:02;;;;;;;1.97;1.57;;;19.20;70.10;;;;;;5050344;28;20416;-73
2022/05/09 11:06:58;;;;;;;4.40;2.00;;;19.40;70.90;;;;;;5051192;28;20790;-73
2022/05/09 11:09:35;;;;;;;3.17;1.60;;;19.20;71.60;;;;;;5051304;28;20795;-74
2022/05/09 11:12:28;;;;;;;3.83;1.60;;;19.40;72.20;;;;;;5051187;28;20854;-73
2022/05/09 11:15:24;;;;;;;1.83;1.53;;;19.40;70.60;;;;;;5051336;28;20405;-73
2022/05/09 11:18:25;;;;;;;2.23;1.80;;;19.60;70.60;;;;;;5031247;28;20503;-73
2022/05/09 11:21:34;;;;;;;3.53;2.70;;;19.30;72.80;;;;;;5031668;28;20550;-73
2022/05/09 11:24:12;;;;;;;3.40;2.73;;;19.60;73.50;;;;;;4950864;29;20797;-74
2022/05/09 11:26:56;;;;;;;3.50;1.83;;;19.70;73.90;;;;;;4950991;28;20415;-73
2022/05/09 11:30:01;;;;;;;3.73;2.13;;;19.70;74.60;;;;;;5004667;28;20450;-73
2022/05/09 11:32:38;;;;;;;4.87;2.47;;;19.60;74.40;;;;;;5035259;28;20407;-72
2022/05/09 11:35:33;;;;;;;5.67;2.13;;;19.80;75.80;;;;;;5051134;28;21013;-73
2022/05/09 11:38:03;;;;;;;2.20;1.63;;;19.90;74.60;;;;;;5044106;28;20423;-73
2022/05/09 11:40:35;;;;;;;2.93;2.20;;;19.60;75.20;;;;;;5051240;28;20518;-73
2022/05/09 11:43:29;;;;;;;6.20;1.50;;;19.60;74.30;;;;;;5054254;28;20500;-73
2022/05/09 11:46:13;;;;;;;1.90;1.50;;;19.80;75.40;;;;;;5048310;28;20417;-73
2022/05/09 11:49:16;;;;;;;2.40;2.20;;;20.30;71.60;;;;;;5054560;28;20424;-73
2022/05/09 11:51:54;;;;;;;1.63;1.53;;;20.70;69.00;;;;;;5054554;28;20408;-74
2022/05/09 11:54:28;;;;;;;1.60;1.50;;;20.40;67.40;;;;;;5054381;28;20466;-74
2022/05/09 11:56:59;;;;;;;1.63;1.53;;;20.60;67.40;;;;;;5054418;28;20395;-73
2022/05/09 11:59:26;;;;;;;4.30;2.23;;;20.80;67.20;;;;;;5074823;23;21070;-66
2022/05/09 12:01:54;;;;;;;2.60;2.10;;;20.30;69.80;;;;;;5047945;28;20460;-66
2022/05/09 12:04:32;;;;;;;2.70;2.13;;;20.30;70.20;;;;;;5051446;28;20540;-67
2022/05/09 12:06:57;;;;;;;2.93;1.67;;;20.20;71.30;;;;;;5053809;28;20832;-67
2022/05/09 12:10:01;;;;;;;1.83;1.30;;;20.00;70.20;;;;;;5053478;28;20470;-69
2022/05/09 12:12:41;;;;;;;2.50;1.80;;;20.20;71.40;;;;;;5053268;28;20179;-67
2022/05/09 12:15:09;;;;;;;2.90;2.33;;;20.30;69.90;;;;;;5039771;28;20464;-67
2022/05/09 12:17:39;;;;;;;2.60;2.00;;;20.30;70.50;;;;;;5033569;28;20934;-68
2022/05/09 12:20:10;;;;;;;2.60;2.27;;;20.30;70.50;;;;;;5039473;28;20440;-68
2022/05/09 12:22:40;;;;;;;3.17;1.80;;;20.30;69.30;;;;;;5053509;28;20410;-68
2022/05/09 12:25:30;;;;;;;2.40;2.17;;;20.20;68.90;;;;;;5053521;28;20405;-68
2022/05/09 12:28:18;;;;;;;1.83;1.70;;;20.40;69.90;;;;;;5052988;28;20559;-67
2022/05/09 12:31:17;;;;;;;1.80;1.70;;;20.80;67.70;;;;;;5053398;28;20566;-67
2022/05/09 12:33:50;;;;;;;2.17;1.60;;;20.80;68.10;;;;;;5048312;28;20491;-67
2022/05/09 12:36:28;;;;;;;2.40;1.97;;;20.50;67.70;;;;;;5033212;28;20407;-67
2022/05/09 12:39:07;;;;;;;1.70;1.43;;;20.50;68.00;;;;;;5032820;28;20801;-68
2022/05/09 12:41:52;;;;;;;3.10;1.77;;;20.30;67.00;;;;;;5032823;28;20522;-68
2022/05/09 12:44:35;;;;;;;2.50;1.50;;;20.40;67.60;;;;;;5032852;28;20430;-66
2022/05/09 12:47:05;;;;;;;2.27;1.87;;;20.30;68.40;;;;;;5046133;28;20401;-69
2022/05/09 12:49:43;;;;;;;3.97;1.93;;;20.30;67.70;;;;;;5052688;28;20466;-67
2022/05/09 12:52:17;;;;;;;3.23;2.07;;;20.20;67.10;;;;;;5052674;28;20416;-69
2022/05/09 12:55:52;;;;;;;4.30;1.70;;;20.20;67.80;;;;;;5034510;28;21010;-68
2022/05/09 12:57:36;;;;;;;2.10;1.90;;;20.20;67.70;;;;;;5052120;28;20424;-67
2022/05/09 13:00:13;;;;;;;2.53;1.87;;;20.20;67.70;;;;;;5050273;28;20971;-68
2022/05/09 13:02:39;;;;;;;2.17;1.70;;;20.50;68.80;;;;;;5051405;28;20411;-67
2022/05/09 13:05:05;;;;;;;6.40;1.87;;;20.60;67.10;;;;;;5052122;28;20424;-67
2022/05/09 13:07:31;;;;;;;2.03;1.83;;;20.40;67.20;;;;;;5040609;28;20195;-66
2022/05/09 13:09:58;;;;;;;1.70;1.50;;;20.80;67.60;;;;;;5032907;28;20910;-67
2022/05/09 13:12:26;;;;;;;2.70;1.80;;;20.90;66.90;;;;;;5033480;28;20196;-67
2022/05/09 13:14:58;;;;;;;2.97;1.70;;;20.70;66.60;;;;;;5031689;28;20414;-67
2022/05/09 13:17:39;;;;;;;1.87;1.73;;;20.80;66.50;;;;;;5032230;28;20406;-68
2022/05/09 13:20:10;;;;;;;6.20;2.77;;;20.90;66.60;;;;;;5046190;28;20476;-69
2022/05/09 13:22:41;;;;;;;2.13;1.93;;;21.00;65.50;;;;;;5049341;28;20418;-67
2022/05/09 13:25:09;;;;;;;1.90;1.80;;;21.10;63.60;;;;;;5051476;28;20399;-68
2022/05/09 13:27:36;;;;;;;2.03;1.57;;;21.20;63.70;;;;;;5051818;28;20431;-67